Time;durP1;ratioP1;P1;durP2;ratioP2;P2;SDS_P1;SDS_P2;PMS_P1;PMS_P2;Temp;Humidity;BMP_temperature;BMP_pressure;BME280_temperature;BME280_humidity;BME280_pressure;Samples;Min_cycle;Max_cycle;Signal;HPM_P1;HPM_P2
2023/03/11 00:45:33;;;;;;;25.93;18.07;;;8.20;99.90;;;;;;4528810;30;20689;-80
2023/03/11 01:06:07;;;;;;;23.63;16.27;;;7.70;99.90;;;;;;4651100;29;20806;-78
2023/03/11 01:36:42;;;;;;;25.63;17.33;;;7.10;99.90;;;;;;4618032;29;20739;-79
2023/03/11 02:17:31;;;;;;;23.17;16.10;;;6.70;99.90;;;;;;4805309;28;20303;-80
2023/03/11 02:37:49;;;;;;;23.87;15.60;;;6.50;99.90;;;;;;4804934;28;20200;-81
2023/03/11 03:03:11;;;;;;;18.00;14.43;;;5.70;99.90;;;;;;4616501;29;20308;-77
2023/03/11 03:38:22;;;;;;;13.83;10.77;;;5.90;99.90;;;;;;4572544;29;20245;-79
2023/03/11 04:33:57;;;;;;;17.93;12.70;;;5.70;99.90;;;;;;4567155;29;20688;-81
2023/03/11 06:00:35;;;;;;;13.93;10.47;;;6.00;99.90;;;;;;4697481;29;20212;-80
2023/03/11 06:30:56;;;;;;;8.00;6.60;;;7.60;99.90;;;;;;4741506;28;20213;-82
2023/03/11 06:51:00;;;;;;;7.50;6.27;;;8.10;99.90;;;;;;4510711;30;21268;-79
2023/03/11 07:11:28;;;;;;;8.50;7.07;;;8.60;99.90;;;;;;4492600;30;20208;-80
2023/03/11 07:36:53;;;;;;;10.70;9.00;;;8.50;99.90;;;;;;4617272;29;20391;-79
2023/03/11 08:17:29;;;;;;;13.30;11.87;;;8.40;99.90;;;;;;4793172;28;20278;-81
2023/03/11 08:47:43;;;;;;;12.83;11.00;;;8.40;99.90;;;;;;4707852;28;20569;-80
2023/03/11 09:12:40;;;;;;;17.53;13.40;;;8.00;99.90;;;;;;4629902;29;20455;-80
2023/03/11 09:37:59;;;;;;;21.40;15.93;;;7.50;99.90;;;;;;4647605;29;20683;-79
2023/03/11 09:58:35;;;;;;;22.93;15.20;;;7.30;99.90;;;;;;4586504;29;20539;-80
2023/03/11 10:33:52;;;;;;;16.23;11.67;;;4.80;99.90;;;;;;4733886;28;21148;-82
2023/03/11 10:59:49;;;;;;;11.57;9.63;;;3.70;99.90;;;;;;4691831;29;20218;-81
2023/03/11 11:24:51;;;;;;;10.07;8.97;;;3.00;99.90;;;;;;4764646;29;21052;-83
2023/03/11 11:49:56;;;;;;;5.50;5.00;;;3.20;99.90;;;;;;4765584;29;20469;-82
2023/03/11 12:15:41;;;;;;;6.00;5.40;;;2.90;99.90;;;;;;4725873;29;20675;-79
2023/03/11 12:41:10;;;;;;;9.80;7.37;;;1.90;99.90;;;;;;4719287;29;20278;-81
2023/03/11 13:11:36;;;;;;;10.17;7.80;;;1.80;99.90;;;;;;4585285;30;20633;-80
2023/03/11 13:41:31;;;;;;;9.27;8.20;;;1.60;99.90;;;;;;4638622;29;20729;-81
2023/03/11 14:06:57;;;;;;;7.07;6.00;;;1.50;99.90;;;;;;4697153;29;20376;-81
2023/03/11 14:27:10;;;;;;;6.57;5.87;;;1.50;99.90;;;;;;4541513;30;20245;-80
2023/03/11 15:03:12;;;;;;;5.87;5.07;;;1.70;92.90;;;;;;4672086;29;20257;-80
2023/03/11 15:28:24;;;;;;;7.03;4.60;;;1.90;89.80;;;;;;4722535;29;20290;-83
2023/03/11 15:58:57;;;;;;;5.97;4.60;;;1.90;86.10;;;;;;4797433;29;20206;-82
2023/03/11 16:28:55;;;;;;;5.50;3.57;;;1.90;85.80;;;;;;4709132;29;21096;-80
2023/03/11 17:50:13;;;;;;;7.23;5.00;;;1.40;91.80;;;;;;4690882;29;20215;-80
2023/03/11 18:20:14;;;;;;;7.63;4.53;;;1.30;91.60;;;;;;4682839;29;21165;-79
2023/03/11 18:46:18;;;;;;;4.30;3.70;;;1.10;88.60;;;;;;4920236;28;20193;-80
2023/03/11 19:06:12;;;;;;;5.47;3.50;;;0.90;87.50;;;;;;4894935;28;20982;-79
2023/03/11 19:36:28;;;;;;;4.30;2.87;;;0.70;88.10;;;;;;4785950;28;20714;-79
2023/03/11 20:02:06;;;;;;;4.97;3.23;;;0.50;88.50;;;;;;4697859;29;20328;-80
2023/03/11 20:37:44;;;;;;;7.47;4.03;;;0.20;91.50;;;;;;4879015;28;20367;-80
2023/03/11 21:08:02;;;;;;;7.07;4.83;;;-0.20;94.80;;;;;;4838726;28;20225;-80
2023/03/11 22:08:57;;;;;;;7.93;5.47;;;0.10;96.30;;;;;;4621761;29;20304;-78
2023/03/11 23:14:21;;;;;;;9.07;6.07;;;-0.20;99.90;;;;;;4548599;29;21232;-80
